Time;durP1;ratioP1;P1;durP2;ratioP2;P2;SDS_P1;SDS_P2;PMS_P1;PMS_P2;Temp;Humidity;BMP_temperature;BMP_pressure;BME280_temperature;BME280_humidity;BME280_pressure;Samples;Min_cycle;Max_cycle;Signal;HPM_P1;HPM_P2
2022/12/31 00:01:10;;;;;;;;;20.60;19.40;;;;;16.33;39.78;100174.69;5090925;27;9580;-77
2022/12/31 00:03:40;;;;;;;;;25.40;24.20;;;;;16.18;40.29;100172.22;5132452;27;8916;-77
2022/12/31 00:06:20;;;;;;;;;25.00;23.80;;;;;16.35;40.24;100172.88;5128314;27;8857;-78
2022/12/31 00:08:49;;;;;;;;;28.60;27.00;;;;;16.26;40.19;100174.78;5129261;27;8833;-79
2022/12/31 00:11:18;;;;;;;;;26.00;25.00;;;;;16.09;40.30;100182.91;5110519;27;9644;-77
2022/12/31 00:13:49;;;;;;;;;26.40;26.20;;;;;16.11;40.23;100187.25;5127438;27;9582;-78
2022/12/31 00:16:20;;;;;;;;;27.80;27.80;;;;;16.08;40.60;100191.66;5127860;27;8841;-78
2022/12/31 00:18:52;;;;;;;;;26.00;25.00;;;;;15.92;40.68;100193.63;5133185;27;8830;-77
2022/12/31 00:21:22;;;;;;;;;23.80;23.80;;;;;16.08;40.36;100195.16;5133126;27;8851;-77
2022/12/31 00:23:52;;;;;;;;;26.40;25.40;;;;;16.18;40.11;100195.91;5129806;27;8912;-76
2022/12/31 00:26:24;;;;;;;;;26.20;23.80;;;;;16.08;40.75;100194.31;5132202;27;8867;-76
2022/12/31 00:28:55;;;;;;;;;28.80;26.20;;;;;16.19;40.13;100192.41;5138099;27;9604;-80
2022/12/31 00:31:25;;;;;;;;;25.80;25.20;;;;;16.26;40.23;100209.00;5121825;27;8843;-76
2022/12/31 00:33:55;;;;;;;;;22.80;22.80;;;;;16.28;40.35;100208.06;5134527;27;8825;-79
2022/12/31 00:36:27;;;;;;;;;24.60;24.40;;;;;16.04;41.10;100211.03;5132825;27;8861;-76
2022/12/31 00:38:57;;;;;;;;;20.40;18.80;;;;;16.03;40.58;100210.16;5132169;27;8830;-75
2022/12/31 00:41:27;;;;;;;;;22.80;22.00;;;;;16.17;40.74;100212.59;5133035;27;8881;-81
2022/12/31 00:43:57;;;;;;;;;27.20;26.60;;;;;16.31;40.03;100212.41;5132804;27;8953;-79
2022/12/31 00:46:26;;;;;;;;;24.60;22.20;;;;;16.22;40.44;100218.69;5132388;27;8858;-80
2022/12/31 00:48:55;;;;;;;;;22.80;19.80;;;;;16.21;40.13;100210.81;5131520;27;8825;-78
2022/12/31 00:51:26;;;;;;;;;23.60;21.00;;;;;16.33;40.35;100224.69;5078811;27;8873;-80
2022/12/31 00:53:56;;;;;;;;;22.20;21.40;;;;;16.33;39.91;100214.16;5132468;27;8849;-76
2022/12/31 00:56:27;;;;;;;;;22.40;20.80;;;;;16.24;40.04;100223.91;5113912;27;8934;-78
2022/12/31 00:58:57;;;;;;;;;23.40;21.80;;;;;16.43;39.90;100221.94;5097404;27;8825;-79
2022/12/31 01:01:28;;;;;;;;;19.60;17.20;;;;;16.47;39.49;100229.75;5122899;27;8910;-80
2022/12/31 01:04:00;;;;;;;;;25.00;21.60;;;;;16.15;40.30;100224.91;5153445;27;8967;-78
2022/12/31 01:06:30;;;;;;;;;32.20;23.60;;;;;16.09;40.45;100219.72;5134585;27;8969;-79
2022/12/31 01:08:59;;;;;;;;;24.60;23.20;;;;;16.33;39.93;100224.69;5151905;27;8989;-82
2022/12/31 01:11:28;;;;;;;;;22.60;21.40;;;;;16.38;39.82;100220.22;5133415;27;8977;-76
2022/12/31 01:13:59;;;;;;;;;18.20;17.20;;;;;16.40;40.25;100216.69;5151817;27;8832;-77
2022/12/31 01:16:30;;;;;;;;;17.00;15.60;;;;;16.43;40.23;100228.06;5151318;27;8857;-78
2022/12/31 01:19:00;;;;;;;;;23.60;21.40;;;;;16.51;39.91;100225.31;5134616;27;8839;-75
2022/12/31 01:21:30;;;;;;;;;26.20;23.80;;;;;16.30;40.19;100232.59;5130700;27;8857;-76
2022/12/31 01:24:00;;;;;;;;;18.40;18.00;;;;;16.26;40.21;100228.28;5113916;27;8862;-80
2022/12/31 01:26:28;;;;;;;;;18.00;17.20;;;;;16.06;40.57;100228.50;5097999;27;8888;-76
2022/12/31 01:28:58;;;;;;;;;22.20;20.80;;;;;15.93;40.84;100235.66;5153279;27;8863;-76
2022/12/31 01:31:27;;;;;;;;;21.40;19.40;;;;;16.12;40.35;100230.19;5134227;27;8851;-77
2022/12/31 01:33:58;;;;;;;;;21.20;19.40;;;;;16.09;40.87;100230.25;5133304;27;9604;-76
2022/12/31 01:36:28;;;;;;;;;23.40;21.60;;;;;16.16;40.42;100227.53;5134216;27;8847;-79
2022/12/31 01:39:01;;;;;;;;;25.80;22.00;;;;;15.77;41.26;100227.09;5134038;27;8912;-79
2022/12/31 01:41:32;;;;;;;;;22.80;22.80;;;;;15.86;41.46;100226.13;5133981;27;8851;-76
2022/12/31 01:44:03;;;;;;;;;23.60;20.20;;;;;15.90;40.92;100222.56;5129652;27;8842;-75
2022/12/31 01:46:37;;;;;;;;;21.60;20.20;;;;;15.97;41.02;100234.78;5131847;27;8872;-75
2022/12/31 01:49:13;;;;;;;;;26.00;21.60;;;;;15.76;41.78;100233.25;5136943;27;8827;-78
2022/12/31 01:51:45;;;;;;;;;23.20;19.80;;;;;15.72;41.75;100222.75;5153387;27;8873;-74
2022/12/31 01:54:20;;;;;;;;;25.40;24.20;;;;;15.62;41.79;100221.09;5135419;27;8874;-79
2022/12/31 01:56:52;;;;;;;;;20.00;19.80;;;;;15.66;41.65;100222.81;5134215;27;8850;-78
2022/12/31 01:59:24;;;;;;;;;20.20;19.20;;;;;15.67;41.93;100220.19;5140502;27;9567;-76
2022/12/31 02:01:52;;;;;;;;;19.60;17.80;;;;;15.65;41.89;100228.94;5142971;27;8837;-79
2022/12/31 02:04:24;;;;;;;;;23.60;22.20;;;;;15.80;41.69;100226.19;5154776;27;8863;-77
2022/12/31 02:06:57;;;;;;;;;23.80;22.60;;;;;15.69;41.61;100231.53;5134717;27;8847;-75
2022/12/31 02:09:28;;;;;;;;;19.80;17.40;;;;;15.78;41.73;100228.84;5133469;27;8878;-80
2022/12/31 02:11:57;;;;;;;;;24.60;22.20;;;;;15.71;41.47;100235.03;5150744;27;8828;-77
2022/12/31 02:14:28;;;;;;;;;19.80;19.80;;;;;15.87;41.52;100229.63;5152023;27;8911;-79
2022/12/31 02:17:05;;;;;;;;;19.20;18.60;;;;;15.62;41.94;100231.63;5111573;27;8852;-74
2022/12/31 02:20:24;;;;;;;;;20.40;18.80;;;;;15.74;41.63;100237.63;5129748;27;8917;-76
2022/12/31 02:23:15;;;;;;;;;20.40;19.60;;;;;15.93;41.21;100224.28;5130900;27;8830;-79
2022/12/31 02:26:07;;;;;;;;;20.40;17.40;;;;;16.00;41.27;100227.72;5112665;27;8867;-77
2022/12/31 02:28:57;;;;;;;;;24.60;22.40;;;;;16.03;40.86;100228.56;5129321;27;8865;-78
2022/12/31 02:31:34;;;;;;;;;20.20;18.60;;;;;15.84;41.68;100235.81;5130709;27;8838;-76
2022/12/31 02:34:09;;;;;;;;;21.00;18.60;;;;;15.95;41.52;100231.28;5144835;27;8839;-74
2022/12/31 02:36:47;;;;;;;;;19.20;17.00;;;;;16.10;41.28;100239.88;5132999;27;8923;-75
2022/12/31 02:39:16;;;;;;;;;18.40;17.20;;;;;16.02;40.84;100233.84;5098912;27;9644;-77
2022/12/31 02:41:51;;;;;;;;;21.60;16.40;;;;;16.10;41.11;100237.25;5134314;27;8873;-78
2022/12/31 02:44:25;;;;;;;;;14.60;14.40;;;;;16.07;41.16;100239.94;5117748;27;9728;-74
2022/12/31 02:47:06;;;;;;;;;19.60;17.40;;;;;16.15;40.99;100236.31;5152666;27;8843;-77
2022/12/31 02:49:42;;;;;;;;;17.60;15.80;;;;;16.04;41.00;100238.19;5134084;27;8868;-75
2022/12/31 02:52:21;;;;;;;;;25.20;21.60;;;;;15.95;41.00;100247.09;5111823;27;8853;-79
2022/12/31 02:55:01;;;;;;;;;19.60;17.20;;;;;15.96;41.23;100243.53;5129232;27;8861;-76
2022/12/31 02:57:38;;;;;;;;;19.60;18.40;;;;;16.08;41.22;100246.91;5149418;27;9530;-78
2022/12/31 03:03:00;;;;;;;;;22.00;19.80;;;;;15.99;41.33;100261.03;5131311;27;8827;-76
2022/12/31 03:05:33;;;;;;;;;21.20;21.00;;;;;15.93;40.82;100253.22;5111678;27;8869;-77
2022/12/31 03:08:02;;;;;;;;;13.00;12.40;;;;;16.04;40.69;100253.13;5129939;27;9626;-77
2022/12/31 03:10:31;;;;;;;;;23.80;20.60;;;;;16.04;40.72;100256.59;5111700;27;8849;-76
2022/12/31 03:12:59;;;;;;;;;17.20;16.20;;;;;16.05;40.75;100265.34;5111313;27;8873;-77
2022/12/31 03:15:30;;;;;;;;;18.80;16.80;;;;;16.08;41.12;100262.72;5113820;27;8884;-74
2022/12/31 03:18:03;;;;;;;;;22.80;21.80;;;;;16.10;40.98;100260.94;5131821;27;8845;-79
2022/12/31 03:23:23;;;;;;;;;18.40;15.60;;;;;15.85;41.45;100261.19;5133578;27;8895;-77
2022/12/31 03:25:52;;;;;;;;;15.20;15.00;;;;;15.83;40.94;100265.59;5131109;27;8864;-78
2022/12/31 03:28:24;;;;;;;;;19.60;17.40;;;;;15.73;41.93;100266.56;5130994;27;8861;-75
2022/12/31 03:30:55;;;;;;;;;11.80;10.40;;;;;15.74;41.41;100263.06;5068361;28;8848;-80
2022/12/31 03:33:29;;;;;;;;;16.60;15.40;;;;;15.78;41.69;100264.78;5050301;28;8835;-76
2022/12/31 03:35:59;;;;;;;;;15.00;14.00;;;;;15.95;41.33;100259.34;5066790;28;8887;-76
2022/12/31 03:38:27;;;;;;;;;10.60;10.40;;;;;15.73;41.46;100256.06;5081866;28;8840;-77
2022/12/31 03:40:56;;;;;;;;;18.00;15.00;;;;;15.70;41.67;100256.94;5058543;28;8853;-78
2022/12/31 03:43:26;;;;;;;;;17.20;17.00;;;;;15.49;42.33;100262.41;5086387;28;8857;-78
2022/12/31 03:45:58;;;;;;;;;15.60;14.20;;;;;15.56;42.04;100275.47;5086763;28;8869;-78
2022/12/31 03:48:29;;;;;;;;;14.80;14.60;;;;;15.68;41.78;100271.00;5070301;28;8872;-76
2022/12/31 03:50:57;;;;;;;;;21.20;17.80;;;;;15.38;42.90;100265.13;5089486;28;8842;-76
2022/12/31 03:53:26;;;;;;;;;16.80;14.00;;;;;15.37;42.60;100256.38;5065136;28;8851;-76
2022/12/31 03:55:55;;;;;;;;;15.20;14.20;;;;;15.46;42.13;100265.91;5049325;28;8852;-77
2022/12/31 03:58:24;;;;;;;;;13.60;12.60;;;;;15.42;42.40;100263.34;5065814;28;8863;-78
2022/12/31 04:00:53;;;;;;;;;13.20;12.60;;;;;15.29;42.55;100267.81;5048827;28;8867;-79
2022/12/31 04:03:21;;;;;;;;;12.60;11.20;;;;;15.48;42.17;100266.81;5065295;28;8853;-78
2022/12/31 04:05:55;;;;;;;;;15.60;14.00;;;;;15.39;42.33;100274.78;5085787;28;8988;-76
2022/12/31 04:08:24;;;;;;;;;17.60;15.00;;;;;15.29;42.35;100271.34;5111782;27;8815;-78
2022/12/31 04:10:53;;;;;;;;;14.60;14.20;;;;;15.39;42.25;100266.88;5148798;27;9667;-76
2022/12/31 04:13:22;;;;;;;;;12.20;10.20;;;;;15.41;42.41;100265.09;5149692;27;8871;-78
2022/12/31 04:15:51;;;;;;;;;14.20;10.00;;;;;15.40;42.08;100263.34;5089103;28;8847;-79
2022/12/31 04:18:20;;;;;;;;;12.80;11.80;;;;;15.38;42.17;100262.50;5088647;28;8932;-75
2022/12/31 04:20:49;;;;;;;;;12.00;12.00;;;;;15.43;41.99;100265.97;5105727;28;8843;-79
2022/12/31 04:23:19;;;;;;;;;16.80;15.80;;;;;15.45;42.25;100265.97;5105760;28;8851;-77
2022/12/31 04:25:48;;;;;;;;;13.20;11.00;;;;;15.64;41.68;100266.66;5087173;28;8863;-77
2022/12/31 04:28:16;;;;;;;;;12.00;10.80;;;;;15.76;41.38;100269.19;5088507;28;9742;-78
2022/12/31 04:30:45;;;;;;;;;15.40;10.00;;;;;15.64;41.71;100275.41;5071081;28;8890;-77
2022/12/31 04:33:14;;;;;;;;;12.60;11.00;;;;;15.54;41.83;100274.63;5088164;28;9579;-77
2022/12/31 04:35:43;;;;;;;;;13.20;13.20;;;;;15.57;41.54;100282.47;5105473;28;8890;-77
2022/12/31 04:38:12;;;;;;;;;16.40;15.20;;;;;15.54;42.05;100285.16;5105577;28;8859;-76
2022/12/31 04:43:27;;;;;;;;;16.60;16.60;;;;;15.43;41.95;100294.00;5103851;28;8843;-76
2022/12/31 04:45:56;;;;;;;;;18.60;18.00;;;;;15.35;42.11;100284.44;5106644;27;8909;-75
2022/12/31 04:48:25;;;;;;;;;16.00;16.00;;;;;15.38;42.11;100286.16;5127107;27;8821;-77
2022/12/31 04:50:54;;;;;;;;;17.40;13.20;;;;;15.42;41.90;100287.88;5128542;27;8841;-76
2022/12/31 04:53:23;;;;;;;;;16.80;12.60;;;;;15.19;42.58;100282.78;5129554;27;8867;-75
2022/12/31 04:55:53;;;;;;;;;15.60;12.40;;;;;15.14;42.72;100289.84;5110540;27;8880;-78
2022/12/31 04:58:22;;;;;;;;;12.00;10.60;;;;;15.05;42.73;100292.53;5127988;27;8910;-78
2022/12/31 05:00:53;;;;;;;;;17.60;17.00;;;;;15.23;42.32;100302.91;5129006;27;8857;-75
2022/12/31 05:03:24;;;;;;;;;7.80;3.40;;;;;15.31;42.08;100309.00;5092921;27;8814;-77
2022/12/31 05:05:53;;;;;;;;;15.20;15.20;;;;;15.42;42.26;100316.78;5110172;27;8899;-77
2022/12/31 05:08:21;;;;;;;;;20.20;16.80;;;;;15.37;41.92;100319.44;5128279;27;9696;-75
2022/12/31 05:10:50;;;;;;;;;20.40;18.20;;;;;15.58;41.91;100318.41;5127025;27;8867;-77
2022/12/31 05:13:20;;;;;;;;;17.40;16.00;;;;;15.78;41.48;100318.28;5110856;27;8853;-79
2022/12/31 05:15:49;;;;;;;;;17.60;12.60;;;;;15.54;41.74;100321.09;5113587;27;8864;-78
2022/12/31 05:18:18;;;;;;;;;16.80;14.00;;;;;15.43;42.06;100315.91;5150960;27;8981;-79
2022/12/31 05:20:47;;;;;;;;;16.60;11.20;;;;;15.35;41.99;100320.34;5134198;27;8965;-80
2022/12/31 05:23:18;;;;;;;;;17.20;17.20;;;;;15.36;42.64;100311.56;5134298;27;9009;-74
2022/12/31 05:25:47;;;;;;;;;14.60;12.20;;;;;15.50;42.11;100314.09;5152384;27;8869;-75
2022/12/31 05:28:17;;;;;;;;;11.40;11.40;;;;;15.52;41.63;100315.84;5133858;27;8842;-80
2022/12/31 05:30:48;;;;;;;;;20.60;15.40;;;;;15.60;41.74;100310.50;5134013;27;8863;-75
2022/12/31 05:33:18;;;;;;;;;17.80;16.80;;;;;15.55;41.66;100321.03;5136265;27;8847;-75
2022/12/31 05:35:47;;;;;;;;;15.80;15.80;;;;;15.51;41.92;100326.34;5071295;28;8856;-77
2022/12/31 05:38:15;;;;;;;;;16.00;14.80;;;;;15.49;41.77;100329.00;5078885;28;8861;-76
2022/12/31 05:40:44;;;;;;;;;16.80;16.00;;;;;15.44;41.94;100328.16;5071316;28;8955;-78
2022/12/31 05:43:14;;;;;;;;;11.60;11.00;;;;;15.55;41.43;100328.94;5071042;28;8866;-75
2022/12/31 05:45:43;;;;;;;;;4.40;2.20;;;;;15.62;41.59;100335.03;5087962;28;8870;-76
2022/12/31 05:48:13;;;;;;;;;14.20;12.80;;;;;15.66;41.97;100343.75;5088097;28;8845;-75
2022/12/31 05:50:42;;;;;;;;;17.40;16.80;;;;;15.61;41.55;100346.41;5033105;28;8875;-76
2022/12/31 05:53:11;;;;;;;;;20.00;17.80;;;;;15.61;41.71;100341.16;5067795;28;8844;-78
2022/12/31 05:55:40;;;;;;;;;17.80;17.80;;;;;15.59;41.56;100350.81;5067444;28;8871;-77
2022/12/31 05:58:08;;;;;;;;;17.40;16.00;;;;;15.64;41.59;100348.16;5054009;28;8849;-77
2022/12/31 06:00:38;;;;;;;;;16.00;16.00;;;;;15.81;41.37;100345.41;5070841;28;8833;-77
2022/12/31 06:03:07;;;;;;;;;16.20;13.20;;;;;15.71;41.36;100352.50;5038373;28;8947;-76
2022/12/31 06:05:39;;;;;;;;;16.00;15.60;;;;;15.79;41.13;100358.59;5067482;28;8990;-73
2022/12/31 06:08:08;;;;;;;;;22.40;18.80;;;;;15.77;41.37;100355.97;5130936;27;8922;-75
2022/12/31 06:10:37;;;;;;;;;18.80;18.00;;;;;15.72;41.48;100362.97;5132500;27;8849;-75
2022/12/31 06:13:06;;;;;;;;;18.00;16.00;;;;;15.87;41.23;100350.63;5114607;27;8837;-79
2022/12/31 06:15:38;;;;;;;;;20.60;19.60;;;;;15.81;41.09;100363.84;5136228;27;8854;-77
2022/12/31 06:18:08;;;;;;;;;17.80;16.40;;;;;15.67;41.55;100356.91;5118374;27;8894;-77
2022/12/31 06:20:38;;;;;;;;;18.20;18.20;;;;;15.59;41.44;100358.69;5140652;27;8879;-74
2022/12/31 06:23:07;;;;;;;;;16.00;14.80;;;;;16.01;40.79;100361.91;5136299;27;8825;-77
2022/12/31 06:25:36;;;;;;;;;14.80;14.80;;;;;15.86;40.98;100364.63;5120611;27;8868;-77
2022/12/31 06:28:06;;;;;;;;;11.00;7.60;;;;;15.87;41.25;100369.91;5138618;27;8934;-75
2022/12/31 06:30:34;;;;;;;;;18.60;17.20;;;;;15.85;41.21;100361.16;5115316;27;8861;-80
2022/12/31 06:33:03;;;;;;;;;17.40;15.20;;;;;15.81;41.11;100369.94;5128913;27;8853;-82
2022/12/31 06:35:32;;;;;;;;;17.60;17.60;;;;;15.80;41.43;100370.81;5110462;27;8826;-77
2022/12/31 06:38:02;;;;;;;;;15.60;14.40;;;;;16.03;40.75;100370.63;5109942;27;8841;-77
2022/12/31 06:40:31;;;;;;;;;15.20;13.20;;;;;16.30;40.19;100377.38;5110500;27;8895;-75
2022/12/31 06:43:01;;;;;;;;;18.20;17.20;;;;;16.27;40.57;100373.91;5141362;27;9093;-77
2022/12/31 06:45:29;;;;;;;;;14.80;14.20;;;;;16.26;40.48;100374.81;5113814;27;8851;-77
2022/12/31 06:47:58;;;;;;;;;22.40;19.40;;;;;16.37;39.85;100371.16;5059405;27;8833;-80
2022/12/31 06:50:27;;;;;;;;;20.80;18.00;;;;;16.35;40.33;100378.19;5126873;27;8853;-78
2022/12/31 06:52:56;;;;;;;;;17.40;16.60;;;;;16.10;40.27;100376.69;5127011;27;8841;-77
2022/12/31 06:55:27;;;;;;;;;13.80;13.80;;;;;16.18;40.30;100375.75;5127109;27;8881;-76
2022/12/31 06:57:56;;;;;;;;;15.00;13.20;;;;;16.16;40.26;100376.63;5109345;27;8921;-79
2022/12/31 07:00:25;;;;;;;;;16.20;16.20;;;;;16.18;40.67;100382.75;5107575;27;8869;-78
2022/12/31 07:03:12;;;;;;;;;20.40;15.60;;;;;16.65;40.04;100385.75;5085774;27;8851;-77
2022/12/31 07:05:48;;;;;;;;;23.50;20.50;;;;;16.50;39.92;100390.31;5132104;27;8962;-76
2022/12/31 07:08:39;;;;;;;;;14.80;13.80;;;;;16.86;39.41;100403.97;5142343;27;8888;-78
2022/12/31 07:11:18;;;;;;;;;17.40;17.20;;;;;17.00;39.00;100416.09;5109202;27;8881;-79
2022/12/31 07:13:58;;;;;;;;;17.00;17.00;;;;;17.21;38.52;100413.16;5106079;28;8931;-78
2022/12/31 07:16:41;;;;;;;;;22.00;18.60;;;;;17.14;38.52;100417.69;5088497;28;8852;-70
2022/12/31 07:19:23;;;;;;;;;22.80;22.00;;;;;17.30;38.46;100413.03;5103488;28;9728;-70
2022/12/31 07:21:55;;;;;;;;;27.80;27.80;;;;;17.33;38.67;100412.13;5105465;28;8938;-75
2022/12/31 07:24:24;;;;;;;;;23.80;23.80;;;;;17.15;38.31;100411.50;5106356;28;8941;-77
2022/12/31 07:27:16;;;;;;;;;19.40;18.80;;;;;17.23;38.76;100411.38;5032274;28;8829;-76
2022/12/31 07:29:57;;;;;;;;;22.20;21.40;;;;;17.22;38.55;100424.56;5089327;28;8857;-75
2022/12/31 07:32:41;;;;;;;;;23.40;22.20;;;;;17.43;38.10;100418.13;5088770;28;8861;-78
2022/12/31 07:35:17;;;;;;;;;24.40;23.00;;;;;17.45;38.01;100421.66;5059968;28;8839;-79
2022/12/31 07:37:56;;;;;;;;;16.40;15.00;;;;;17.74;37.49;100421.19;5088433;28;8903;-78
2022/12/31 07:40:36;;;;;;;;;20.80;19.40;;;;;17.64;37.91;100420.47;5071592;28;8972;-80
2022/12/31 07:43:13;;;;;;;;;32.20;30.60;;;;;17.69;37.97;100433.56;5083503;28;8855;-79
2022/12/31 07:45:49;;;;;;;;;28.20;25.80;;;;;18.02;37.40;100433.97;5064284;28;8853;-79
2022/12/31 07:48:25;;;;;;;;;26.40;20.40;;;;;18.11;37.31;100432.03;5051289;28;8849;-78
2022/12/31 07:50:56;;;;;;;;;21.80;21.40;;;;;18.26;36.90;100436.19;5049339;28;9586;-79
2022/12/31 07:53:26;;;;;;;;;21.20;18.20;;;;;18.43;36.79;100440.25;5008623;28;8892;-80
2022/12/31 07:55:58;;;;;;;;;25.00;22.80;;;;;18.53;36.70;100431.28;5060146;28;8842;-78
2022/12/31 07:58:43;;;;;;;;;26.80;24.60;;;;;18.78;36.43;100436.09;5045613;28;8880;-78
2022/12/31 08:01:15;;;;;;;;;31.40;28.00;;;;;18.78;36.22;100442.25;5067878;28;8899;-78
2022/12/31 08:03:57;;;;;;;;;25.00;23.60;;;;;18.96;36.00;100450.72;5052674;28;8887;-78
2022/12/31 08:06:36;;;;;;;;;23.40;22.60;;;;;19.07;35.88;100451.38;5038833;28;8853;-78
2022/12/31 08:09:12;;;;;;;;;23.20;22.40;;;;;19.16;35.74;100455.59;5048145;28;8875;-77
2022/12/31 08:11:47;;;;;;;;;24.20;22.40;;;;;19.25;35.44;100468.63;5049333;28;9602;-79
2022/12/31 08:14:18;;;;;;;;;30.40;28.20;;;;;19.05;35.38;100469.03;5049402;28;8905;-77
2022/12/31 08:16:48;;;;;;;;;25.40;24.00;;;;;19.13;35.36;100466.25;5070936;28;8952;-77
2022/12/31 08:19:26;;;;;;;;;25.60;22.80;;;;;19.26;35.35;100473.00;5105533;27;9390;-79
2022/12/31 08:22:19;;;;;;;;;25.00;25.00;;;;;19.29;35.15;100471.16;5107331;28;8845;-78
2022/12/31 08:25:03;;;;;;;;;20.60;19.60;;;;;19.12;35.45;100478.59;5111018;27;8861;-79
2022/12/31 08:27:41;;;;;;;;;28.20;26.60;;;;;18.97;35.80;100478.91;5099595;27;8886;-79
2022/12/31 08:30:14;;;;;;;;;33.40;27.80;;;;;19.09;35.55;100482.19;5106430;28;8845;-81
2022/12/31 08:32:50;;;;;;;;;24.00;22.20;;;;;19.03;35.54;100484.06;5097447;28;8837;-80
2022/12/31 08:35:33;;;;;;;;;27.60;23.00;;;;;19.25;35.34;100489.78;5124461;27;8854;-80
2022/12/31 08:38:23;;;;;;;;;21.00;20.40;;;;;19.40;35.25;100493.88;5110013;27;8850;-80
2022/12/31 08:41:00;;;;;;;;;25.40;21.80;;;;;19.40;35.14;100492.09;5108614;28;8853;-79
2022/12/31 08:43:43;;;;;;;;;24.60;23.40;;;;;19.53;34.97;100498.00;5089586;28;8856;-78
2022/12/31 08:46:20;;;;;;;;;29.20;27.20;;;;;19.62;35.04;100495.16;5107848;28;8850;-79
2022/12/31 08:48:50;;;;;;;;;26.60;25.80;;;;;19.70;34.80;100502.03;5111355;27;8847;-80
2022/12/31 08:51:21;;;;;;;;;30.40;28.20;;;;;19.74;34.54;100499.31;5115192;27;8887;-78
2022/12/31 08:53:52;;;;;;;;;28.20;27.60;;;;;19.85;34.52;100501.72;5113424;27;8854;-78
2022/12/31 08:56:29;;;;;;;;;30.00;28.40;;;;;20.04;34.43;100510.09;5109819;28;8988;-79
2022/12/31 08:59:11;;;;;;;;;28.60;28.60;;;;;20.00;34.59;100511.97;5093390;27;8869;-80
2022/12/31 09:01:57;;;;;;;;;30.00;29.40;;;;;20.06;34.24;100514.44;5093207;28;8899;-80
2022/12/31 09:04:34;;;;;;;;;24.00;23.20;;;;;20.11;34.34;100521.41;5093522;28;8852;-79
2022/12/31 09:07:05;;;;;;;;;29.60;28.00;;;;;20.11;34.75;100519.63;5110806;27;8845;-80
2022/12/31 09:09:44;;;;;;;;;30.40;27.00;;;;;20.29;34.70;100520.97;5110971;28;8829;-78
2022/12/31 09:12:24;;;;;;;;;27.80;26.00;;;;;20.39;33.96;100516.28;5128224;27;8973;-77
2022/12/31 09:15:03;;;;;;;;;29.00;26.50;;;;;20.49;33.85;100517.81;5134241;27;8843;-77
2022/12/31 09:17:45;;;;;;;;;28.60;28.00;;;;;20.59;34.15;100521.97;5125789;27;8845;-78
2022/12/31 09:20:20;;;;;;;;;33.00;31.00;;;;;20.58;33.82;100525.50;5110752;27;8844;-79
2022/12/31 09:22:49;;;;;;;;;40.50;35.25;;;;;20.68;33.87;100520.00;5112624;27;8876;-79
2022/12/31 09:25:20;;;;;;;;;36.25;33.50;;;;;20.76;33.53;100518.03;5110339;28;8853;-79
2022/12/31 09:28:03;;;;;;;;;35.75;32.00;;;;;20.83;33.49;100516.94;5111407;27;8945;-78
2022/12/31 09:30:42;;;;;;;;;34.50;32.00;;;;;20.89;33.31;100513.25;5096981;27;9631;-79
2022/12/31 09:33:21;;;;;;;;;44.75;36.50;;;;;20.97;33.58;100516.56;5100790;27;8865;-80
2022/12/31 09:35:55;;;;;;;;;45.00;34.75;;;;;20.94;33.36;100511.34;5113358;27;8846;-75
2022/12/31 09:38:37;;;;;;;;;44.75;36.50;;;;;21.09;33.33;100510.03;5136925;27;8843;-74
2022/12/31 09:41:14;;;;;;;;;37.25;34.50;;;;;20.97;33.41;100509.47;5152866;27;8858;-73
2022/12/31 09:44:24;;;;;;;;;34.25;32.50;;;;;21.11;33.15;100516.16;5133665;27;8869;-72
2022/12/31 09:47:23;;;;;;;;;36.00;33.50;;;;;21.16;33.39;100509.81;5129696;27;8841;-72
2022/12/31 09:50:20;;;;;;;;;31.00;29.50;;;;;21.23;33.15;100508.72;5047291;28;8866;-77
2022/12/31 09:53:21;;;;;;;;;33.80;30.80;;;;;21.25;33.03;100521.06;5047352;28;8865;-75
2022/12/31 09:55:56;;;;;;;;;34.80;31.00;;;;;21.21;32.77;100515.00;4987910;28;8868;-75
2022/12/31 09:58:37;;;;;;;;;32.40;28.40;;;;;21.34;32.95;100518.16;4971621;28;8872;-76
2022/12/31 10:01:23;;;;;;;;;31.40;29.00;;;;;21.53;32.83;100518.50;4971802;28;8869;-75
2022/12/31 10:04:14;;;;;;;;;36.75;30.50;;;;;21.58;32.86;100514.78;4988135;28;8868;-76
2022/12/31 10:06:52;;;;;;;;;35.75;33.00;;;;;21.66;32.98;100513.69;4984873;28;9001;-76
2022/12/31 10:09:37;;;;;;;;;37.25;31.25;;;;;21.79;32.69;100510.59;4968455;28;8898;-76
2022/12/31 10:12:27;;;;;;;;;31.40;29.60;;;;;21.91;32.44;100506.72;4987320;28;9056;-75
2022/12/31 10:15:14;;;;;;;;;33.75;30.75;;;;;21.99;32.28;100503.81;4987860;28;8860;-76
2022/12/31 10:17:55;;;;;;;;;30.00;26.50;;;;;21.74;32.47;100499.28;4973582;28;8994;-79
2022/12/31 10:20:33;;;;;;;;;21.20;19.40;;;;;21.71;32.06;100488.75;4926214;28;8864;-76
2022/12/31 10:23:42;;;;;;;;;34.00;29.60;;;;;21.90;32.09;100494.34;4955551;28;8874;-80
2022/12/31 10:26:25;;;;;;;;;26.20;23.80;;;;;21.86;31.98;100495.34;4966144;28;8963;-79
2022/12/31 10:28:56;;;;;;;;;25.00;23.20;;;;;21.80;31.55;100495.56;5028853;28;8846;-72
2022/12/31 10:31:39;;;;;;;;;21.20;21.20;;;;;21.41;31.86;100499.34;5045895;28;8866;-79
2022/12/31 10:34:15;;;;;;;;;17.60;17.60;;;;;21.73;31.75;100502.84;5046170;28;8906;-80
2022/12/31 10:36:53;;;;;;;;;16.80;15.80;;;;;21.99;31.66;100503.81;5091501;28;8833;-79
2022/12/31 10:39:39;;;;;;;;;18.00;17.20;;;;;22.09;30.97;100502.56;5108135;28;8865;-81
2022/12/31 10:42:53;;;;;;;;;22.00;19.40;;;;;22.31;31.35;100500.13;5108515;28;8833;-82
2022/12/31 10:46:09;;;;;;;;;23.20;21.20;;;;;22.35;31.25;100492.91;5108994;28;8833;-80
2022/12/31 10:49:10;;;;;;;;;24.40;24.40;;;;;22.38;30.58;100499.00;5069159;28;8873;-79
2022/12/31 10:52:17;;;;;;;;;32.80;26.00;;;;;22.51;30.61;100491.47;5038413;28;8952;-82
2022/12/31 10:55:23;;;;;;;;;23.60;22.60;;;;;22.48;30.27;100488.06;4991443;28;8940;-80
2022/12/31 10:58:11;;;;;;;;;20.80;19.80;;;;;22.64;30.44;100486.56;5007402;28;8850;-81
2022/12/31 11:00:49;;;;;;;;;25.00;22.80;;;;;22.76;30.73;100490.59;5008863;28;8846;-78
2022/12/31 11:04:11;;;;;;;;;22.20;20.20;;;;;22.98;30.28;100496.84;5028077;28;8845;-82
2022/12/31 11:07:16;;;;;;;;;26.80;23.60;;;;;23.04;30.07;100493.13;5010710;28;8848;-80
2022/12/31 11:10:29;;;;;;;;;25.40;24.20;;;;;23.16;29.56;100489.16;4932528;28;8917;-80
2022/12/31 11:13:58;;;;;;;;;27.75;26.75;;;;;22.85;29.90;100500.88;4917026;28;8858;-80
2022/12/31 11:16:38;;;;;;;;;27.80;24.80;;;;;22.84;29.80;100490.31;4872515;29;8884;-81
2022/12/31 11:19:18;;;;;;;;;30.60;26.60;;;;;22.67;30.13;100494.44;4857666;29;8880;-81
2022/12/31 11:22:01;;;;;;;;;27.80;27.20;;;;;22.84;29.80;100491.19;4827491;29;8950;-79
2022/12/31 11:24:47;;;;;;;;;25.20;24.40;;;;;22.84;29.47;100499.16;4814309;29;9622;-81
2022/12/31 11:27:32;;;;;;;;;20.60;18.60;;;;;22.90;29.79;100490.09;4860210;29;8906;-81
2022/12/31 11:30:11;;;;;;;;;25.80;25.80;;;;;22.88;29.87;100484.81;4876520;29;8902;-81
2022/12/31 11:32:54;;;;;;;;;31.60;26.80;;;;;22.66;29.73;100486.53;4875540;29;8868;-80
2022/12/31 11:35:31;;;;;;;;;23.40;22.40;;;;;22.45;29.63;100491.66;4894292;29;9453;-80
2022/12/31 11:38:14;;;;;;;;;29.80;26.60;;;;;22.51;30.04;100482.59;4878228;29;8907;-82
2022/12/31 11:40:53;;;;;;;;;23.20;22.00;;;;;22.52;29.84;100481.69;4899054;29;8896;-82
2022/12/31 11:43:28;;;;;;;;;23.20;20.20;;;;;22.63;29.97;100473.31;4928586;29;8870;-79
2022/12/31 11:46:36;;;;;;;;;17.60;17.60;;;;;22.76;29.71;100478.16;4929201;28;8856;-79
2022/12/31 11:49:17;;;;;;;;;22.80;20.40;;;;;22.56;29.94;100485.97;4969850;28;9006;-82
2022/12/31 11:52:07;;;;;;;;;19.20;17.60;;;;;22.71;29.89;100479.25;4983391;28;8862;-81
2022/12/31 11:55:09;;;;;;;;;19.60;19.60;;;;;22.70;29.69;100475.75;5045379;28;8866;-80
2022/12/31 11:57:44;;;;;;;;;20.60;18.60;;;;;22.46;30.04;100471.28;5045545;28;8862;-82
2022/12/31 12:00:19;;;;;;;;;19.80;18.80;;;;;22.54;29.90;100467.41;5045102;28;8869;-80
2022/12/31 12:02:51;;;;;;;;;16.20;16.20;;;;;22.63;29.89;100466.25;5045573;28;8877;-80
2022/12/31 12:05:23;;;;;;;;;18.60;17.00;;;;;21.24;31.63;100477.75;5028833;28;8970;-81